Centre Hospitalier Heliport

FR-0119 · Aveyron, Occitanie, France

METAR history FR-0119 · Centre Hospitalier Heliport

Below you see METARs of the last few days. Select a year to browse through older METARs, from the year 2007 onwards.

June 13, 2024

Time Code Weather Temp. Visibility Ceiling Wind METAR/SPECI
09:00
V
13 °C 10 km+ - Var Var 2 kt METAR LFCR 130700Z AUTO VRB02KT CAVOK 13/07 Q1020 NOSIG
08:30
V
11 °C 10 km+ - Var Var 2 kt METAR LFCR 130630Z AUTO VRB02KT CAVOK 11/06 Q1020 NOSIG
08:00
V
9 °C 10 km+ - Var Var 2 kt METAR LFCR 130600Z AUTO VRB02KT CAVOK 09/06 Q1020 NOSIG
07:30
V
7 °C 10 km+ - Var Var 1 kt METAR LFCR 130530Z AUTO VRB01KT CAVOK 07/06 Q1020 NOSIG
07:00
V
5 °C 10 km+ - Var Var 2 kt METAR LFCR 130500Z AUTO VRB02KT CAVOK 05/05 Q1020 NOSIG
06:30
V
3 °C 10 km+ - 150° 150° 3 kt METAR LFCR 130430Z AUTO 15003KT CAVOK 03/02 Q1020 NOSIG
06:00
V
4 °C 10 km+ - 360° 360° 0 kt METAR LFCR 130400Z AUTO 00000KT CAVOK 04/03 Q1020 NOSIG
05:30
V
4 °C 10 km+ - 360° 360° 0 kt METAR LFCR 130330Z AUTO 00000KT CAVOK 04/04 Q1020 NOSIG
05:00
V
4 °C 10 km+ - 360° 360° 0 kt METAR LFCR 130300Z AUTO 00000KT CAVOK 04/03 Q1020 NOSIG
04:30
V
5 °C 10 km+ - 280° 280° 2 kt METAR LFCR 130230Z AUTO 28002KT CAVOK 05/05 Q1020 NOSIG
04:00
V
5 °C 10 km+ - 210° 210° 2 kt METAR LFCR 130200Z AUTO 21002KT CAVOK 05/04 Q1020 NOSIG
03:30
V
6 °C 10 km+ - 200° 200° 2 kt METAR LFCR 130130Z AUTO 20002KT CAVOK 06/04 Q1020 NOSIG
03:00
V
6 °C 10 km+ - 200° 200° 2 kt METAR LFCR 130100Z AUTO 20002KT CAVOK 06/05 Q1020 NOSIG
02:30
V
6 °C 10 km+ - Var Var 2 kt METAR LFCR 130030Z AUTO VRB02KT CAVOK 06/05 Q1020 NOSIG
02:00
V
7 °C 10 km+ - 210° 210° 2 kt METAR LFCR 130000Z AUTO 21002KT CAVOK 07/05 Q1020 NOSIG
01:30
V
8 °C 10 km+ - 360° 360° 0 kt METAR LFCR 122330Z AUTO 00000KT CAVOK 08/04 Q1020 NOSIG
01:00
V
9 °C 10 km+ - 300° 300° 2 kt METAR LFCR 122300Z AUTO 30002KT CAVOK 09/06 Q1020 NOSIG
00:30
V
10 °C 10 km+ - 320° 320° 4 kt METAR LFCR 122230Z AUTO 32004KT CAVOK 10/06 Q1020 NOSIG
00:00
V
11 °C 10 km+ - 320° 320° 4 kt METAR LFCR 122200Z AUTO 32004KT CAVOK 11/05 Q1020 NOSIG

June 12, 2024

Time Code Weather Temp. Visibility Ceiling Wind METAR/SPECI
23:30
V
12 °C 10 km+ - 320° 320° 4 kt METAR LFCR 122130Z AUTO 32004KT CAVOK 12/05 Q1020 NOSIG
23:00
V
12 °C 10 km+ - 340° 340° 3 kt METAR LFCR 122100Z AUTO 34003KT 310V010 CAVOK 12/06 Q1020 NOSIG
22:30
V
12 °C 10 km+ - 310° 310° 4 kt METAR LFCR 122030Z AUTO 31004KT CAVOK 12/06 Q1020 NOSIG
22:00
V
12 °C 10 km+ - 310° 310° 5 kt METAR LFCR 122000Z AUTO 31005KT CAVOK 12/06 Q1020 NOSIG
21:30
V
12 °C 10 km+ - 310° 310° 6 kt METAR LFCR 121930Z AUTO 31006KT CAVOK 12/05 Q1019 NOSIG
21:00
V
14 °C 10 km+ - 320° 320° 8 kt METAR LFCR 121900Z AUTO 32008KT CAVOK 14/05 Q1019 NOSIG
20:30
V
15 °C 10 km+ - 320° 320° 8 kt METAR LFCR 121830Z AUTO 32008KT CAVOK 15/06 Q1019 NOSIG
20:00
V
17 °C 10 km+ - 310° 310° 11 kt METAR LFCR 121800Z AUTO 31011KT CAVOK 17/06 Q1018 NOSIG
19:30
V
17 °C 10 km+ - 290° 290° 9 kt METAR LFCR 121730Z AUTO 29009KT CAVOK 17/06 Q1018 NOSIG
19:00
V
16 °C 10 km+ - 320° 320° 8 kt METAR LFCR 121700Z AUTO 32008KT 290V350 CAVOK 16/06 Q1018 NOSIG
18:30
V
16 °C 10 km+ - 300° 300° 9 kt METAR LFCR 121630Z AUTO 30009KT CAVOK 16/05 Q1018 NOSIG
18:00
V
16 °C 10 km+ - 320° 320° 10 kt METAR LFCR 121600Z AUTO 32010KT CAVOK 16/05 Q1018 NOSIG
17:30
V
16 °C 10 km+ - 310° 310° 15 kt METAR LFCR 121530Z AUTO 31015KT CAVOK 16/05 Q1018 NOSIG
17:00
V
17 °C 10 km+ - 280° 280° 10 kt METAR LFCR 121500Z AUTO 28010KT CAVOK 17/05 Q1018 NOSIG
16:30
V
16 °C 10 km+ - 290° 290° 12 kt METAR LFCR 121430Z AUTO 29012KT CAVOK 16/04 Q1018 NOSIG
16:00
V
17 °C 10 km+ - 310° 310° 14 kt METAR LFCR 121400Z AUTO 31014KT CAVOK 17/05 Q1018 NOSIG
15:30
V
18 °C 10 km+ - 320° 320° 11 kt METAR LFCR 121330Z AUTO 32011KT CAVOK 18/04 Q1018 NOSIG
15:00
V
18 °C 10 km+ - 330° 330° 10 - 20 kt METAR LFCR 121300Z AUTO 33010G20KT 260V010 CAVOK 18/03 Q1018 NOSIG
14:30
V
18 °C 10 km+ - 300° 300° 11 kt METAR LFCR 121230Z AUTO 30011KT 280V340 CAVOK 18/04 Q1018 NOSIG
14:00
V
18 °C 10 km+ - 320° 320° 10 kt METAR LFCR 121200Z AUTO 32010KT 280V360 CAVOK 18/04 Q1019 NOSIG
13:30
V
18 °C 10 km+ - 320° 320° 9 kt METAR LFCR 121130Z AUTO 32009KT 280V350 CAVOK 18/04 Q1019 NOSIG
13:00
V
17 °C 10 km+ - 300° 300° 8 kt METAR LFCR 121100Z AUTO 30008KT 240V350 CAVOK 17/05 Q1019 NOSIG
12:30
V
17 °C 10 km+ - 300° 300° 7 kt METAR LFCR 121030Z AUTO 30007KT 250V350 CAVOK 17/05 Q1019 NOSIG
12:00
V
15 °C 10 km+ 5,000 ft 270° 270° 7 kt METAR LFCR 121000Z AUTO 27007KT 240V310 9999 SCT043 BKN050 BKN062 15/05 Q1019 NOSIG
11:30
V
16 °C 10 km+ - 320° 320° 6 kt METAR LFCR 120930Z AUTO 32006KT 250V060 CAVOK 16/06 Q1019 NOSIG
11:00
V
15 °C 10 km+ - 340° 340° 6 kt METAR LFCR 120900Z AUTO 34006KT 290V030 CAVOK 15/06 Q1019 NOSIG
10:30
V
14 °C 10 km+ - 350° 350° 7 kt METAR LFCR 120830Z AUTO 35007KT 310V020 CAVOK 14/07 Q1019 NOSIG
10:00
V
14 °C 10 km+ - 350° 350° 4 kt METAR LFCR 120800Z AUTO 35004KT 310V040 CAVOK 14/05 Q1019 NOSIG
09:30
V
13 °C 10 km+ - 350° 350° 5 kt METAR LFCR 120730Z AUTO 35005KT 310V040 CAVOK 13/06 Q1019 NOSIG
09:00
V
13 °C 10 km+ - 340° 340° 3 kt METAR LFCR 120700Z AUTO 34003KT 310V030 CAVOK 13/06 Q1019 NOSIG
08:30
V
12 °C 10 km+ - Var Var 2 kt METAR LFCR 120630Z AUTO VRB02KT CAVOK 12/06 Q1019 NOSIG
08:00
V
11 °C 10 km+ - 010° 010° 3 kt METAR LFCR 120600Z AUTO 01003KT 350V060 CAVOK 11/06 Q1019 NOSIG
07:30
V
10 °C 10 km+ - 010° 010° 3 kt METAR LFCR 120530Z AUTO 01003KT CAVOK 10/05 Q1018 NOSIG
07:00
V
10 °C 10 km+ - 350° 350° 3 kt METAR LFCR 120500Z AUTO 35003KT CAVOK 10/06 Q1018 NOSIG
06:30
V
8 °C 10 km+ - 360° 360° 0 kt METAR LFCR 120430Z AUTO 00000KT CAVOK 08/05 Q1018 NOSIG
06:00
V
8 °C 10 km+ - 360° 360° 0 kt METAR LFCR 120400Z AUTO 00000KT CAVOK 08/05 Q1018 NOSIG
05:30
V
6 °C 10 km+ - Var Var 1 kt METAR LFCR 120330Z AUTO VRB01KT CAVOK 06/05 Q1018 NOSIG
05:00
V
5 °C 10 km+ - 140° 140° 2 kt METAR LFCR 120300Z AUTO 14002KT CAVOK 05/04 Q1018 NOSIG
04:30
V
8 °C 10 km+ - 320° 320° 2 kt METAR LFCR 120230Z AUTO 32002KT CAVOK 08/05 Q1018 NOSIG
04:00
V
7 °C 10 km+ - 360° 360° 0 kt METAR LFCR 120200Z AUTO 00000KT CAVOK 07/05 Q1018 NOSIG
03:30
V
7 °C 10 km+ - 270° 270° 2 kt METAR LFCR 120130Z AUTO 27002KT CAVOK 07/05 Q1018 NOSIG
03:00
V
8 °C 10 km+ - Var Var 2 kt METAR LFCR 120100Z AUTO VRB02KT CAVOK 08/05 Q1018 NOSIG
02:30
V
8 °C 10 km+ - Var Var 3 kt METAR LFCR 120030Z AUTO VRB03KT CAVOK 08/05 Q1018 NOSIG
02:00
V
10 °C 10 km+ - 330° 330° 4 kt METAR LFCR 120000Z AUTO 33004KT CAVOK 10/05 Q1018 NOSIG
01:30
V
10 °C 10 km+ - Var Var 1 kt METAR LFCR 112330Z AUTO VRB01KT CAVOK 10/06 Q1018 NOSIG
01:00
V
10 °C 10 km+ - Var Var 1 kt METAR LFCR 112300Z AUTO VRB01KT CAVOK 10/06 Q1018 NOSIG
00:30
V
9 °C 10 km+ - Var Var 2 kt METAR LFCR 112230Z AUTO VRB02KT CAVOK 09/06 Q1018 NOSIG
00:00
V
9 °C 10 km+ - 240° 240° 2 kt METAR LFCR 112200Z AUTO 24002KT CAVOK 09/05 Q1018 NOSIG

June 11, 2024

Time Code Weather Temp. Visibility Ceiling Wind METAR/SPECI
23:30
V
11 °C 10 km+ - Var Var 2 kt METAR LFCR 112130Z AUTO VRB02KT CAVOK 11/06 Q1018 NOSIG
23:00
V
11 °C 10 km+ - 010° 010° 6 kt METAR LFCR 112100Z AUTO 01006KT 330V040 CAVOK 11/07 Q1018 NOSIG
22:30
V
12 °C 10 km+ - 030° 030° 4 kt METAR LFCR 112030Z AUTO 03004KT 360V060 CAVOK 12/08 Q1018 NOSIG
22:00
V
13 °C 10 km+ - 030° 030° 5 kt METAR LFCR 112000Z AUTO 03005KT CAVOK 13/08 Q1017 NOSIG
21:30
V
14 °C 10 km+ - 330° 330° 4 kt METAR LFCR 111930Z AUTO 33004KT CAVOK 14/09 Q1017 NOSIG
21:00
V
14 °C 10 km+ - 320° 320° 4 kt METAR LFCR 111900Z AUTO 32004KT CAVOK 14/09 Q1017 TEMPO SCT025TCU
20:30
V
14 °C 10 km+ - 320° 320° 5 kt METAR LFCR 111830Z AUTO 32005KT CAVOK 14/10 Q1017 TEMPO SCT025TCU
20:00
V
15 °C 10 km+ - 330° 330° 7 kt METAR LFCR 111800Z AUTO 33007KT CAVOK 15/10 Q1016 TEMPO SCT025TCU
19:30
V
15 °C 10 km+ 7,800 ft 330° 330° 5 kt METAR LFCR 111730Z AUTO 33005KT 280V010 9999 FEW026 BKN078 15/10 Q1016 NOSIG
19:00
V
15 °C 10 km+ 8,000 ft 290° 290° 9 kt METAR LFCR 111700Z AUTO 29009KT 9999 FEW044 SCT054 BKN080 15/09 Q1016 TEMPO SCT020TCU
18:30
V
16 °C 10 km+ - 320° 320° 7 kt METAR LFCR 111630Z AUTO 32007KT 270V010 9999 FEW049 SCT078 16/10 Q1016 TEMPO SCT020TCU
18:00
V
14 °C 10 km+ 4,900 ft 340° 340° 7 kt METAR LFCR 111600Z AUTO 34007KT 300V020 9999 FEW035 BKN049 OVC060 14/10 Q1016 TEMPO SCT020TCU
17:30
V
14 °C 10 km+ 3,100 ft 340° 340° 15 kt METAR LFCR 111530Z AUTO 34015KT 9999 BKN031/// BKN041/// ///TCU 14/09 Q1016 NOSIG
17:00
V
17 °C 10 km+ 7,800 ft 310° 310° 9 kt METAR LFCR 111500Z AUTO 31009KT 280V340 9999 FEW027/// SCT056/// BKN078/// //////CB 17/10 Q1016 NOSIG
16:30
V
15 °C 10 km+ - 290° 290° 8 kt METAR LFCR 111430Z AUTO 29008KT 260V320 9999 //////CB 15/10 Q1017 NOSIG
16:00
V
15 °C 10 km+ 6,600 ft 290° 290° 10 kt METAR LFCR 111400Z AUTO 29010KT 260V330 9999 FEW019 OVC066 15/10 Q1017 TEMPO SCT020TCU
15:30
V
15 °C 10 km+ - 290° 290° 11 kt METAR LFCR 111330Z AUTO 29011KT CAVOK 15/10 Q1017 TEMPO SCT020TCU
15:00
M
15 °C 10 km+ 2,600 ft 280° 280° 12 kt METAR LFCR 111300Z AUTO 28012KT 9999 BKN026/// BKN035/// OVC056/// //////TCU 15/09 Q1017 NOSIG
14:30
V
16 °C 10 km+ 3,100 ft 290° 290° 12 kt METAR LFCR 111230Z AUTO 29012KT 9999 SCT026/// BKN031/// BKN038/// ///CB 16/09 Q1017 NOSIG
14:00
M
16 °C 10 km+ 2,400 ft 280° 280° 10 kt METAR LFCR 111200Z AUTO 28010KT 250V310 9999 BKN024 BKN042 BKN052 16/11 Q1017 TEMPO SCT020TCU
13:30
M
15 °C 10 km+ 2,800 ft 290° 290° 9 kt METAR LFCR 111130Z AUTO 29009KT 9999 SCT021 BKN028 BKN041 15/10 Q1017 BECMG SCT020TCU SCT050
13:00
M
15 °C 10 km+ 2,100 ft 290° 290° 10 kt METAR LFCR 111100Z AUTO 29010KT 260V320 9999 BKN021 BKN030 BKN039 15/11 Q1017 BECMG SCT020TCU SCT050
12:30
M
15 °C 10 km+ 2,800 ft 300° 300° 10 kt METAR LFCR 111030Z AUTO 30010KT 9999 FEW019 BKN028 BKN033 15/12 Q1017 BECMG SCT020TCU SCT050
12:00
M
14 °C 10 km+ 1,600 ft 280° 280° 8 kt METAR LFCR 111000Z AUTO 28008KT 240V320 9999 BKN016 BKN025 OVC066 14/10 Q1017 BECMG SCT020TCU SCT050
11:30
M
13 °C 10 km+ 1,200 ft 270° 270° 9 kt METAR LFCR 110930Z AUTO 27009KT 240V310 9999 BKN012 BKN017 OVC027 13/10 Q1017 BECMG SCT020TCU SCT050
11:00
M
13 °C 10 km+ 1,100 ft 260° 260° 7 kt METAR LFCR 110900Z AUTO 26007KT 230V300 9999 BKN011 BKN017 BKN045 13/11 Q1017 BECMG SCT020TCU SCT050
10:30
V
12 °C 10 km+ 4,100 ft 270° 270° 9 kt METAR LFCR 110830Z AUTO 27009KT 9999 FEW009 SCT017 OVC041 12/11 Q1017 BECMG SCT020TCU SCT050
10:00
I
12 °C 10 km+ 900 ft 300° 300° 7 kt METAR LFCR 110800Z AUTO 30007KT 260V330 9999 BKN009/// BKN014/// BKN021/// 12/10 Q1017 BECMG SCT020TCU SCT050
09:30
I
12 °C 10 km+ 800 ft 290° 290° 8 kt METAR LFCR 110730Z AUTO 29008KT 9999 BKN008 OVC013 12/10 Q1017 BECMG SCT020TCU SCT050
09:00
I
11 °C 10 km+ 600 ft 280° 280° 4 kt METAR LFCR 110700Z AUTO 28004KT 250V310 9999 BKN006 BKN011 OVC040 11/10 Q1016 BECMG SCT010 OVC030
08:30
I
11 °C 10 km+ 600 ft 270° 270° 5 kt METAR LFCR 110630Z AUTO 27005KT 9999 BKN006 OVC037 11/10 Q1016 BECMG SCT010 OVC030
08:00
V
10 °C 10 km+ 3,600 ft 250° 250° 6 kt METAR LFCR 110600Z AUTO 25006KT 9999 FEW006 OVC036 10/10 Q1016 TEMPO OVC007
Report a change